Time;durP1;ratioP1;P1;durP2;ratioP2;P2;SDS_P1;SDS_P2;PMS_P1;PMS_P2;Temp;Humidity;BMP_temperature;BMP_pressure;BME280_temperature;BME280_humidity;BME280_pressure;Samples;Min_cycle;Max_cycle;Signal;HPM_P1;HPM_P2
2023/10/15 00:01:09;;;;;;;;;;;;;;;16.13;47.51;99292.63;5054797;28;20374;-77
2023/10/15 00:03:34;;;;;;;;;;;;;;;16.12;47.49;99293.66;5054619;28;19928;-77
2023/10/15 00:05:59;;;;;;;;;;;;;;;16.04;47.03;99296.59;5056606;28;19917;-77
2023/10/15 00:08:25;;;;;;;;;;;;;;;15.98;47.36;99292.97;5056470;28;20302;-77
2023/10/15 00:10:50;;;;;;;;;;;;;;;15.97;47.45;99293.19;5055057;28;19919;-76
2023/10/15 00:13:15;;;;;;;;;;;;;;;15.96;47.71;99283.56;5054072;28;20385;-77
2023/10/15 00:15:42;;;;;;;;;;;;;;;15.96;47.46;99289.72;5053880;28;19924;-78
2023/10/15 00:18:09;;;;;;;;;;;;;;;15.95;47.00;99284.59;5052450;28;19952;-77
2023/10/15 00:20:35;;;;;;;;;;;;;;;15.89;47.62;99275.66;5053538;28;19970;-78
2023/10/15 00:23:04;;;;;;;;;;;;;;;15.94;47.09;99277.66;5053533;28;19912;-79
2023/10/15 00:25:34;;;;;;;;;;;;;;;15.95;47.37;99274.78;5053529;28;19946;-78
2023/10/15 00:28:01;;;;;;;;;;;;;;;15.98;47.22;99278.84;5053659;28;20016;-77
2023/10/15 00:30:32;;;;;;;;;;;;;;;15.94;47.62;99269.66;5052067;28;19943;-78
2023/10/15 00:32:58;;;;;;;;;;;;;;;15.85;47.61;99267.28;5053448;28;19912;-76
2023/10/15 00:35:25;;;;;;;;;;;;;;;15.81;47.85;99260.75;5052277;28;20020;-78
2023/10/15 00:37:56;;;;;;;;;;;;;;;15.72;48.67;99262.06;5053437;28;19952;-79
2023/10/15 00:40:23;;;;;;;;;;;;;;;15.67;48.25;99261.91;5053332;28;19920;-77
2023/10/15 00:42:48;;;;;;;;;;;;;;;15.61;48.16;99260.13;5053517;28;19917;-77
2023/10/15 00:45:18;;;;;;;;;;;;;;;15.54;48.83;99254.78;5053282;28;19971;-76
2023/10/15 00:47:44;;;;;;;;;;;;;;;15.55;48.52;99256.41;5053369;28;19963;-76
2023/10/15 00:50:09;;;;;;;;;;;;;;;15.55;48.86;99252.94;5053217;28;20309;-75
2023/10/15 00:52:42;;;;;;;;;;;;;;;15.52;48.92;99253.38;5068555;28;19912;-78
2023/10/15 00:55:08;;;;;;;;;;;;;;;15.51;48.65;99251.75;5052991;28;20408;-77
2023/10/15 00:57:42;;;;;;;;;;;;;;;15.48;48.87;99255.66;5053198;28;19920;-77
2023/10/15 01:02:56;;;;;;;;;;;;;;;15.29;49.25;99247.81;5053167;28;20375;-78
2023/10/15 01:05:24;;;;;;;;;;;;;;;15.20;49.35;99248.09;5052487;28;19978;-77
2023/10/15 01:07:51;;;;;;;;;;;;;;;15.18;49.10;99249.34;5052867;28;19919;-77
2023/10/15 01:10:31;;;;;;;;;;;;;;;15.10;49.07;99245.09;5052746;28;20026;-78
2023/10/15 01:12:57;;;;;;;;;;;;;;;15.07;48.95;99248.19;5052807;28;19920;-77
2023/10/15 01:15:22;;;;;;;;;;;;;;;15.03;49.66;99240.84;5052926;28;19917;-77
2023/10/15 01:17:53;;;;;;;;;;;;;;;14.93;49.43;99233.34;5052851;28;19916;-77
2023/10/15 01:20:23;;;;;;;;;;;;;;;14.88;49.83;99231.31;5052822;28;19967;-77
2023/10/15 01:22:50;;;;;;;;;;;;;;;14.79;50.41;99239.72;5052908;28;19913;-77
2023/10/15 01:25:24;;;;;;;;;;;;;;;14.75;49.95;99242.00;5052810;28;19912;-77
2023/10/15 01:27:54;;;;;;;;;;;;;;;14.74;50.23;99234.22;5053289;28;19935;-77
2023/10/15 01:30:20;;;;;;;;;;;;;;;14.69;50.68;99236.72;5052667;28;19913;-77
2023/10/15 01:32:45;;;;;;;;;;;;;;;14.62;50.66;99234.09;5052517;28;19966;-77
2023/10/15 01:35:10;;;;;;;;;;;;;;;14.56;50.91;99233.09;5052601;28;19960;-77
2023/10/15 01:37:44;;;;;;;;;;;;;;;14.54;51.22;99235.16;5052843;28;19920;-77
2023/10/15 01:42:40;;;;;;;;;;;;;;;14.54;50.77;99227.16;5052794;28;19912;-77
2023/10/15 01:47:54;;;;;;;;;;;;;;;14.50;51.15;99235.78;5052110;28;19913;-77
2023/10/15 01:50:33;;;;;;;;;;;;;;;14.42;51.31;99228.84;5052163;28;19959;-77
2023/10/15 01:53:01;;;;;;;;;;;;;;;14.42;51.30;99222.69;5051802;28;19928;-77
2023/10/15 01:55:29;;;;;;;;;;;;;;;14.44;50.61;99228.66;5052251;28;19917;-77
2023/10/15 01:57:54;;;;;;;;;;;;;;;14.46;50.68;99218.63;5054239;28;19919;-78
2023/10/15 02:03:04;;;;;;;;;;;;;;;14.44;51.25;99226.00;5053416;28;19944;-78
2023/10/15 02:05:41;;;;;;;;;;;;;;;14.40;51.21;99230.06;5051684;28;19921;-77
2023/10/15 02:08:07;;;;;;;;;;;;;;;14.41;50.26;99221.06;5051857;28;19913;-77
2023/10/15 02:10:32;;;;;;;;;;;;;;;14.40;50.29;99219.44;5051857;28;19934;-77
2023/10/15 02:13:04;;;;;;;;;;;;;;;14.36;50.71;99228.84;5051793;28;20408;-78
2023/10/15 02:15:32;;;;;;;;;;;;;;;14.35;50.91;99227.22;5051687;28;19917;-78
2023/10/15 02:17:59;;;;;;;;;;;;;;;14.42;50.70;99225.34;5051559;28;19920;-78
2023/10/15 02:23:08;;;;;;;;;;;;;;;14.43;50.74;99225.19;5051849;28;20019;-77
2023/10/15 02:25:37;;;;;;;;;;;;;;;14.45;50.85;99223.13;5051840;28;19956;-78
2023/10/15 02:28:02;;;;;;;;;;;;;;;14.37;51.17;99215.38;5050456;28;19912;-77
2023/10/15 02:30:32;;;;;;;;;;;;;;;14.33;50.65;99219.47;5051743;28;19935;-76
2023/10/15 02:32:58;;;;;;;;;;;;;;;14.29;51.26;99224.38;5051677;28;19955;-77
2023/10/15 02:35:24;;;;;;;;;;;;;;;14.22;51.32;99220.13;5051644;28;19964;-78
2023/10/15 02:37:49;;;;;;;;;;;;;;;14.19;50.89;99216.03;5051568;28;19920;-77
2023/10/15 02:40:18;;;;;;;;;;;;;;;14.14;51.67;99215.03;5051465;28;19986;-77
2023/10/15 02:42:52;;;;;;;;;;;;;;;14.16;50.48;99213.00;5050256;28;19912;-78
2023/10/15 02:45:18;;;;;;;;;;;;;;;14.15;50.94;99211.34;5051512;28;19966;-77
2023/10/15 02:47:48;;;;;;;;;;;;;;;14.04;50.91;99206.66;5052026;28;19936;-77
2023/10/15 02:50:18;;;;;;;;;;;;;;;14.02;51.47;99200.75;5051774;28;19952;-78
2023/10/15 02:52:44;;;;;;;;;;;;;;;14.04;50.91;99198.69;5051736;28;19913;-77
2023/10/15 02:55:10;;;;;;;;;;;;;;;14.03;50.98;99195.22;5050299;28;19924;-77
2023/10/15 02:57:40;;;;;;;;;;;;;;;13.97;51.37;99199.53;5051613;28;19913;-77
2023/10/15 03:02:49;;;;;;;;;;;;;;;13.92;51.72;99204.66;5051934;28;20428;-77
2023/10/15 03:05:18;;;;;;;;;;;;;;;13.86;51.59;99209.97;5052604;28;19921;-77
2023/10/15 03:07:43;;;;;;;;;;;;;;;13.83;51.86;99199.78;5055272;28;20015;-77
2023/10/15 03:10:12;;;;;;;;;;;;;;;13.78;51.34;99208.34;5055131;28;20408;-77
2023/10/15 03:12:43;;;;;;;;;;;;;;;13.75;50.55;99210.59;5055046;28;19927;-77
2023/10/15 03:15:09;;;;;;;;;;;;;;;13.68;51.48;99206.13;5055237;28;19924;-77
2023/10/15 03:17:40;;;;;;;;;;;;;;;13.64;51.37;99204.91;5055098;28;19913;-77
2023/10/15 03:20:49;;;;;;;;;;;;;;;13.64;51.72;99209.41;5054958;28;19913;-77
2023/10/15 03:23:01;;;;;;;;;;;;;;;13.64;51.40;99201.44;5054952;28;19912;-77
2023/10/15 03:25:28;;;;;;;;;;;;;;;13.68;51.14;99205.31;5054008;28;19971;-77
2023/10/15 03:28:00;;;;;;;;;;;;;;;13.71;51.26;99199.59;5054981;28;19913;-77
2023/10/15 03:30:25;;;;;;;;;;;;;;;13.67;51.94;99204.50;5054851;28;20377;-77
2023/10/15 03:32:52;;;;;;;;;;;;;;;13.66;51.38;99191.44;5054859;28;19920;-78
2023/10/15 03:36:03;;;;;;;;;;;;;;;13.59;52.44;99195.94;5054831;28;19921;-77
2023/10/15 03:38:14;;;;;;;;;;;;;;;13.56;51.91;99197.16;5054351;28;19912;-77
2023/10/15 03:43:06;;;;;;;;;;;;;;;13.61;51.95;99188.59;5054870;28;19919;-77
2023/10/15 03:45:50;;;;;;;;;;;;;;;13.60;52.61;99187.78;5054687;28;19980;-78
2023/10/15 03:48:15;;;;;;;;;;;;;;;13.57;53.24;99188.19;5054546;28;19919;-77
2023/10/15 03:50:53;;;;;;;;;;;;;;;13.58;52.59;99192.47;5054425;28;19917;-77
2023/10/15 03:53:20;;;;;;;;;;;;;;;13.65;52.79;99177.34;5054279;28;19916;-77
2023/10/15 03:55:49;;;;;;;;;;;;;;;13.66;52.59;99181.63;5054159;28;19925;-78
2023/10/15 03:58:15;;;;;;;;;;;;;;;13.66;52.92;99184.28;5054149;28;19987;-77
2023/10/15 04:00:46;;;;;;;;;;;;;;;13.70;52.24;99178.56;5054748;28;20002;-77
2023/10/15 04:03:28;;;;;;;;;;;;;;;13.73;52.39;99181.63;5054276;28;20027;-77
2023/10/15 04:06:06;;;;;;;;;;;;;;;13.77;52.29;99176.72;5054334;28;19977;-77
2023/10/15 04:08:34;;;;;;;;;;;;;;;13.74;52.89;99177.94;5054178;28;20394;-78
2023/10/15 04:11:00;;;;;;;;;;;;;;;13.72;53.53;99174.69;5054257;28;19912;-77
2023/10/15 04:13:26;;;;;;;;;;;;;;;13.75;52.80;99176.94;5052834;28;19913;-77
2023/10/15 04:15:52;;;;;;;;;;;;;;;13.77;52.65;99166.91;5053530;28;19923;-78
2023/10/15 04:18:18;;;;;;;;;;;;;;;13.81;52.24;99165.47;5054009;28;20052;-78
2023/10/15 04:20:43;;;;;;;;;;;;;;;13.83;52.24;99165.28;5052648;28;19912;-78
2023/10/15 04:23:30;;;;;;;;;;;;;;;13.80;52.06;99185.09;5054097;28;19968;-77
2023/10/15 04:25:57;;;;;;;;;;;;;;;13.76;52.69;99183.06;5053903;28;19982;-77
2023/10/15 04:28:25;;;;;;;;;;;;;;;13.75;52.93;99178.75;5053952;28;19991;-77
2023/10/15 04:30:50;;;;;;;;;;;;;;;13.73;52.68;99180.81;5054228;28;20386;-77
2023/10/15 04:33:18;;;;;;;;;;;;;;;13.71;53.13;99177.56;5053959;28;19935;-77
2023/10/15 04:35:43;;;;;;;;;;;;;;;13.69;52.33;99175.09;5053825;28;20000;-77
2023/10/15 04:38:09;;;;;;;;;;;;;;;13.70;52.69;99179.38;5053871;28;19951;-77
2023/10/15 04:40:59;;;;;;;;;;;;;;;13.73;52.78;99178.97;5053798;28;19916;-76
2023/10/15 04:43:25;;;;;;;;;;;;;;;13.78;52.35;99181.00;5053637;28;19913;-77
2023/10/15 04:45:56;;;;;;;;;;;;;;;13.78;53.12;99178.34;5053596;28;20384;-77
2023/10/15 04:48:32;;;;;;;;;;;;;;;13.85;52.07;99173.84;5053513;28;19917;-76
2023/10/15 04:51:13;;;;;;;;;;;;;;;13.91;52.30;99178.31;5053616;28;20470;-76
2023/10/15 04:53:44;;;;;;;;;;;;;;;13.93;52.03;99177.09;5053530;28;19913;-77
2023/10/15 04:56:10;;;;;;;;;;;;;;;13.99;52.15;99176.25;5053435;28;19999;-77
2023/10/15 04:58:35;;;;;;;;;;;;;;;14.06;51.57;99181.53;5053570;28;20393;-77
2023/10/15 05:01:01;;;;;;;;;;;;;;;14.04;51.85;99188.91;5053530;28;19909;-77
2023/10/15 05:03:26;;;;;;;;;;;;;;;13.99;52.78;99189.53;5053176;28;19912;-76
2023/10/15 05:05:53;;;;;;;;;;;;;;;14.03;52.36;99191.75;5053011;28;19970;-77
2023/10/15 05:08:18;;;;;;;;;;;;;;;13.98;52.40;99193.19;5053338;28;19919;-77
2023/10/15 05:10:50;;;;;;;;;;;;;;;13.95;52.83;99190.97;5053598;28;19912;-77
2023/10/15 05:13:16;;;;;;;;;;;;;;;14.00;51.90;99185.84;5053130;28;19943;-77
2023/10/15 05:15:43;;;;;;;;;;;;;;;14.00;51.61;99193.81;5052864;28;19967;-77
2023/10/15 05:18:09;;;;;;;;;;;;;;;14.04;51.67;99196.03;5053049;28;19920;-77
2023/10/15 05:20:36;;;;;;;;;;;;;;;14.07;51.99;99195.63;5051836;28;19912;-77
2023/10/15 05:23:01;;;;;;;;;;;;;;;14.17;51.28;99199.50;5052976;28;19912;-77
2023/10/15 05:25:26;;;;;;;;;;;;;;;14.20;51.28;99198.28;5053120;28;19919;-77
2023/10/15 05:27:51;;;;;;;;;;;;;;;14.15;51.09;99200.75;5051868;28;19913;-77
2023/10/15 05:30:17;;;;;;;;;;;;;;;14.13;51.61;99186.84;5052488;28;20409;-77
2023/10/15 05:32:48;;;;;;;;;;;;;;;14.13;51.86;99200.94;5050947;28;19920;-77
2023/10/15 05:35:13;;;;;;;;;;;;;;;14.18;51.48;99195.81;5051962;28;19964;-77
2023/10/15 05:37:42;;;;;;;;;;;;;;;14.23;51.74;99192.53;5052193;28;19955;-77
2023/10/15 05:40:08;;;;;;;;;;;;;;;14.27;51.85;99199.06;5052160;28;19999;-78
2023/10/15 05:42:33;;;;;;;;;;;;;;;14.28;52.08;99200.69;5052223;28;19912;-78
2023/10/15 05:45:00;;;;;;;;;;;;;;;14.30;51.20;99191.50;5052141;28;20415;-77
2023/10/15 05:47:25;;;;;;;;;;;;;;;14.28;51.77;99190.06;5052220;28;19916;-77
2023/10/15 05:49:50;;;;;;;;;;;;;;;14.34;51.77;99186.56;5052311;28;19916;-77
2023/10/15 05:52:16;;;;;;;;;;;;;;;14.37;52.39;99191.47;5052128;28;19909;-77
2023/10/15 05:54:41;;;;;;;;;;;;;;;14.34;52.22;99189.22;5051972;28;19921;-77
2023/10/15 05:57:07;;;;;;;;;;;;;;;14.36;52.18;99181.03;5052091;28;19913;-77
2023/10/15 05:59:36;;;;;;;;;;;;;;;14.37;52.03;99190.66;5051934;28;20004;-77
2023/10/15 06:02:02;;;;;;;;;;;;;;;14.38;52.65;99182.47;5051923;28;19944;-77
2023/10/15 06:04:27;;;;;;;;;;;;;;;14.42;52.06;99180.19;5051819;28;19929;-77
2023/10/15 06:06:52;;;;;;;;;;;;;;;14.49;51.97;99173.84;5052066;28;19917;-77
2023/10/15 06:09:18;;;;;;;;;;;;;;;14.56;53.02;99179.94;5052042;28;19980;-77
2023/10/15 06:11:43;;;;;;;;;;;;;;;14.64;52.47;99181.53;5051891;28;20312;-77
2023/10/15 06:14:08;;;;;;;;;;;;;;;14.75;52.48;99182.72;5051904;28;19917;-77
2023/10/15 06:16:34;;;;;;;;;;;;;;;14.82;52.56;99178.97;5050633;28;19919;-77
2023/10/15 06:18:59;;;;;;;;;;;;;;;14.90;52.76;99185.91;5052024;28;19921;-77
2023/10/15 06:21:25;;;;;;;;;;;;;;;14.96;52.79;99186.91;5051811;28;19963;-77
2023/10/15 06:23:50;;;;;;;;;;;;;;;15.02;52.29;99178.06;5051601;28;19935;-77
2023/10/15 06:26:15;;;;;;;;;;;;;;;15.09;52.94;99179.66;5051678;28;20362;-76
2023/10/15 06:28:41;;;;;;;;;;;;;;;15.15;53.32;99177.97;5051713;28;19944;-77
2023/10/15 06:31:09;;;;;;;;;;;;;;;15.21;53.61;99172.59;5052072;28;19960;-77
2023/10/15 06:33:34;;;;;;;;;;;;;;;15.26;53.01;99172.75;5052434;28;19913;-77
2023/10/15 06:35:59;;;;;;;;;;;;;;;15.34;53.79;99171.66;5050672;28;19924;-77
2023/10/15 06:38:25;;;;;;;;;;;;;;;15.42;53.47;99173.25;5052254;28;19913;-77
2023/10/15 06:40:51;;;;;;;;;;;;;;;15.51;52.96;99164.75;5056847;28;19946;-77
2023/10/15 06:43:17;;;;;;;;;;;;;;;15.60;53.62;99167.97;5060372;28;19909;-77
2023/10/15 06:45:42;;;;;;;;;;;;;;;15.68;53.58;99162.41;5059542;28;20294;-77
2023/10/15 06:48:08;;;;;;;;;;;;;;;15.81;53.23;99167.59;5059920;28;20492;-77
2023/10/15 06:50:33;;;;;;;;;;;;;;;15.92;53.46;99160.72;5055005;28;19920;-77
2023/10/15 06:53:01;;;;;;;;;;;;;;;16.01;53.61;99161.22;5055821;28;19909;-77
2023/10/15 06:55:26;;;;;;;;;;;;;;;16.06;54.22;99167.53;5055827;28;19923;-78
2023/10/15 06:57:53;;;;;;;;;;;;;;;16.13;53.89;99164.78;5055639;28;19917;-78
2023/10/15 07:00:21;;;;;;;;;;;;;;;16.20;53.36;99163.66;5056224;28;19996;-77
2023/10/15 07:02:48;;;;;;;;;;;;;;;16.29;53.26;99161.50;5055247;28;20378;-77
2023/10/15 07:05:16;;;;;;;;;;;;;;;16.40;53.72;99151.97;5055073;28;20450;-78
2023/10/15 07:07:45;;;;;;;;;;;;;;;16.47;53.42;99153.50;5055230;28;19920;-77
2023/10/15 07:10:12;;;;;;;;;;;;;;;16.55;52.81;99144.38;5053793;28;19916;-78
2023/10/15 07:12:37;;;;;;;;;;;;;;;16.66;52.67;99156.97;5055177;28;19912;-77
2023/10/15 07:15:05;;;;;;;;;;;;;;;16.74;52.17;99153.97;5054958;28;19917;-77
2023/10/15 07:17:30;;;;;;;;;;;;;;;16.80;53.04;99152.25;5053602;28;19913;-76
2023/10/15 07:19:55;;;;;;;;;;;;;;;16.86;52.04;99146.00;5053814;28;19920;-77
2023/10/15 07:22:21;;;;;;;;;;;;;;;16.94;52.36;99150.19;5054934;28;19917;-77
2023/10/15 07:24:46;;;;;;;;;;;;;;;17.03;52.48;99152.31;5054727;28;20344;-77
2023/10/15 07:27:11;;;;;;;;;;;;;;;17.09;52.07;99150.56;5053331;28;19913;-77
2023/10/15 07:29:38;;;;;;;;;;;;;;;17.17;52.35;99142.25;5054386;28;19913;-77
2023/10/15 07:32:03;;;;;;;;;;;;;;;17.26;51.79;99151.56;5054617;28;19948;-78
2023/10/15 07:34:29;;;;;;;;;;;;;;;17.36;51.77;99140.31;5054713;28;20372;-78
2023/10/15 07:36:57;;;;;;;;;;;;;;;17.44;51.16;99131.94;5053375;28;19913;-78
2023/10/15 07:39:23;;;;;;;;;;;;;;;17.54;50.93;99139.38;5054611;28;19916;-78
2023/10/15 07:41:48;;;;;;;;;;;;;;;17.62;50.63;99139.84;5054635;28;19917;-77
2023/10/15 07:44:15;;;;;;;;;;;;;;;17.70;50.57;99134.16;5054456;28;19971;-78
2023/10/15 07:46:42;;;;;;;;;;;;;;;17.79;50.82;99139.97;5054219;28;19913;-77
2023/10/15 07:49:08;;;;;;;;;;;;;;;17.89;50.48;99131.38;5053002;28;19912;-77
2023/10/15 07:51:33;;;;;;;;;;;;;;;18.00;50.40;99135.88;5053314;28;19996;-77
2023/10/15 07:53:58;;;;;;;;;;;;;;;18.10;49.46;99136.09;5054023;28;20015;-77
2023/10/15 07:56:24;;;;;;;;;;;;;;;18.19;49.29;99133.84;5054067;28;19913;-77
2023/10/15 07:58:50;;;;;;;;;;;;;;;18.25;48.99;99128.38;5054117;28;19913;-77
2023/10/15 08:01:15;;;;;;;;;;;;;;;18.33;48.40;99122.66;5054143;28;19987;-77
2023/10/15 08:03:42;;;;;;;;;;;;;;;18.40;48.52;99117.97;5054174;28;19920;-78
2023/10/15 08:06:07;;;;;;;;;;;;;;;18.49;48.28;99114.91;5054299;28;20386;-77
2023/10/15 08:08:32;;;;;;;;;;;;;;;18.57;48.36;99106.50;5052909;28;19944;-78
2023/10/15 08:10:58;;;;;;;;;;;;;;;18.67;48.14;99110.22;5054149;28;19913;-75
2023/10/15 08:13:24;;;;;;;;;;;;;;;18.77;47.82;99114.13;5052538;28;19920;-78
2023/10/15 08:15:50;;;;;;;;;;;;;;;18.85;48.11;99103.03;5053821;28;20353;-77
2023/10/15 08:18:15;;;;;;;;;;;;;;;18.94;48.24;99099.72;5053797;28;19960;-78
2023/10/15 08:20:40;;;;;;;;;;;;;;;19.04;48.13;99101.75;5053701;28;19913;-78
2023/10/15 08:23:05;;;;;;;;;;;;;;;19.14;48.20;99098.41;5054082;28;19919;-78
2023/10/15 08:25:34;;;;;;;;;;;;;;;19.22;47.82;99098.00;5054061;28;20405;-77
2023/10/15 08:27:59;;;;;;;;;;;;;;;19.30;47.25;99102.94;5053751;28;19967;-77
2023/10/15 08:30:25;;;;;;;;;;;;;;;19.39;47.09;99106.03;5053572;28;20344;-78
2023/10/15 08:32:50;;;;;;;;;;;;;;;19.46;47.38;99104.00;5054069;28;19916;-77
2023/10/15 08:35:15;;;;;;;;;;;;;;;19.54;46.97;99096.38;5053544;28;19921;-77
2023/10/15 08:37:44;;;;;;;;;;;;;;;19.66;46.55;99098.94;5052262;28;19917;-78
2023/10/15 08:40:15;;;;;;;;;;;;;;;19.75;46.77;99099.31;5053561;28;19967;-77
2023/10/15 08:43:00;;;;;;;;;;;;;;;19.79;46.61;99087.06;5053607;28;19940;-77
2023/10/15 08:45:26;;;;;;;;;;;;;;;19.85;46.59;99088.72;5053104;28;19913;-77
2023/10/15 08:47:52;;;;;;;;;;;;;;;19.91;46.59;99095.78;5053194;28;20003;-77
2023/10/15 08:50:20;;;;;;;;;;;;;;;20.00;46.68;99088.91;5053283;28;19909;-78
2023/10/15 08:52:46;;;;;;;;;;;;;;;20.11;46.60;99077.28;5053070;28;20314;-77
2023/10/15 08:55:11;;;;;;;;;;;;;;;20.21;45.92;99079.25;5068082;28;19921;-78
2023/10/15 08:57:37;;;;;;;;;;;;;;;20.31;46.36;99080.19;5052877;28;19919;-77
2023/10/15 09:00:04;;;;;;;;;;;;;;;20.41;46.04;99070.66;5052889;28;19917;-77
2023/10/15 09:02:30;;;;;;;;;;;;;;;20.52;45.87;99067.00;5052854;28;19912;-77
2023/10/15 09:04:55;;;;;;;;;;;;;;;20.61;45.21;99071.66;5068064;28;19921;-78
2023/10/15 09:07:22;;;;;;;;;;;;;;;20.73;45.17;99068.78;5053014;28;20058;-77
2023/10/15 09:09:49;;;;;;;;;;;;;;;20.83;45.16;99062.72;5052804;28;19992;-75
2023/10/15 09:12:14;;;;;;;;;;;;;;;20.89;44.77;99050.97;5052773;28;19917;-76
2023/10/15 09:14:40;;;;;;;;;;;;;;;20.96;45.06;99048.06;5052698;28;19924;-77
2023/10/15 09:17:09;;;;;;;;;;;;;;;21.04;44.57;99047.59;5052509;28;19913;-78
2023/10/15 09:19:36;;;;;;;;;;;;;;;21.13;44.29;99048.72;5051417;28;19913;-76
2023/10/15 09:22:03;;;;;;;;;;;;;;;21.25;44.47;99044.81;5052412;28;19982;-76
2023/10/15 09:24:29;;;;;;;;;;;;;;;21.40;44.15;99038.69;5052483;28;19913;-77
2023/10/15 09:26:54;;;;;;;;;;;;;;;21.58;44.36;99036.66;5052383;28;19962;-77
2023/10/15 09:29:19;;;;;;;;;;;;;;;21.73;43.01;99032.16;5052445;28;19940;-77
2023/10/15 09:31:45;;;;;;;;;;;;;;;21.93;43.26;99031.41;5052433;28;20386;-77
2023/10/15 09:34:13;;;;;;;;;;;;;;;22.15;42.73;99023.97;5052178;28;19916;-78
2023/10/15 09:36:39;;;;;;;;;;;;;;;22.29;42.29;99020.78;5052473;28;19913;-78
2023/10/15 09:39:12;;;;;;;;;;;;;;;22.34;42.10;99012.75;5052357;28;19958;-77
2023/10/15 09:41:37;;;;;;;;;;;;;;;22.34;41.97;99007.38;5052204;28;19956;-78
2023/10/15 09:44:06;;;;;;;;;;;;;;;22.36;42.38;99005.22;5052149;28;20002;-77
2023/10/15 09:46:32;;;;;;;;;;;;;;;22.37;41.87;98988.81;5052269;28;19962;-77
2023/10/15 09:48:59;;;;;;;;;;;;;;;22.44;41.61;98992.03;5052188;28;19975;-75
2023/10/15 09:51:25;;;;;;;;;;;;;;;22.56;41.46;98982.88;5051861;28;19912;-77
2023/10/15 09:53:52;;;;;;;;;;;;;;;22.68;41.75;98986.09;5057286;28;19924;-75
2023/10/15 09:56:19;;;;;;;;;;;;;;;22.79;41.07;98979.63;5071885;28;20385;-75
2023/10/15 09:58:44;;;;;;;;;;;;;;;22.86;40.96;98972.13;5072051;28;19919;-77
2023/10/15 10:01:25;;;;;;;;;;;;;;;22.99;41.37;98968.06;5072280;28;19912;-76
2023/10/15 10:04:18;;;;;;;;;;;;;;;23.14;41.18;98963.47;5072026;28;19927;-78
2023/10/15 10:06:44;;;;;;;;;;;;;;;23.33;41.11;98952.88;5072023;28;20370;-78
2023/10/15 10:09:28;;;;;;;;;;;;;;;23.45;40.72;98947.19;5072149;28;19912;-77
2023/10/15 10:12:06;;;;;;;;;;;;;;;23.59;39.95;98953.59;5072174;28;19951;-77
2023/10/15 10:14:50;;;;;;;;;;;;;;;23.72;39.80;98941.41;5071256;28;20003;-77
2023/10/15 10:17:18;;;;;;;;;;;;;;;23.79;39.21;98933.84;5071945;28;19912;-75
2023/10/15 10:19:43;;;;;;;;;;;;;;;23.92;38.80;98927.81;5072112;28;19919;-76
2023/10/15 10:22:24;;;;;;;;;;;;;;;24.04;39.59;98928.28;5071987;28;20313;-78
2023/10/15 10:24:50;;;;;;;;;;;;;;;24.17;38.51;98920.63;5072007;28;20385;-76
2023/10/15 10:27:16;;;;;;;;;;;;;;;24.29;38.57;98913.00;5071942;28;20385;-77
2023/10/15 10:29:42;;;;;;;;;;;;;;;24.37;37.98;98907.00;5070847;28;19920;-78
2023/10/15 10:32:09;;;;;;;;;;;;;;;24.50;38.38;98908.22;5071978;28;19920;-76
2023/10/15 10:34:34;;;;;;;;;;;;;;;24.61;38.45;98898.97;5071929;28;19917;-77
2023/10/15 10:36:59;;;;;;;;;;;;;;;24.70;38.63;98902.66;5071778;28;20300;-77
2023/10/15 10:39:42;;;;;;;;;;;;;;;24.80;38.27;98902.56;5071747;28;19913;-78
2023/10/15 10:42:18;;;;;;;;;;;;;;;24.91;38.26;98895.94;5071718;28;19913;-76
2023/10/15 10:44:44;;;;;;;;;;;;;;;25.02;37.21;98891.25;5071895;28;20389;-76
2023/10/15 10:47:17;;;;;;;;;;;;;;;25.12;37.71;98879.53;5071854;28;19920;-76
2023/10/15 10:49:47;;;;;;;;;;;;;;;25.23;36.81;98878.31;5071601;28;19952;-78
2023/10/15 10:52:17;;;;;;;;;;;;;;;25.34;36.70;98874.41;5071790;28;20320;-75
2023/10/15 10:54:42;;;;;;;;;;;;;;;25.44;36.94;98862.66;5071716;28;19916;-77
2023/10/15 10:57:08;;;;;;;;;;;;;;;25.55;35.50;98859.50;5071812;28;19912;-77
2023/10/15 10:59:34;;;;;;;;;;;;;;;25.64;36.24;98862.34;5070327;28;20495;-78
2023/10/15 11:02:00;;;;;;;;;;;;;;;25.72;35.99;98860.91;5071738;28;19912;-75
2023/10/15 11:04:25;;;;;;;;;;;;;;;25.77;35.56;98856.22;5071840;28;19974;-77
2023/10/15 11:06:51;;;;;;;;;;;;;;;25.82;35.84;98850.75;5071552;28;19913;-76
2023/10/15 11:09:16;;;;;;;;;;;;;;;25.84;35.12;98843.13;5070611;28;19911;-76
2023/10/15 11:11:45;;;;;;;;;;;;;;;25.87;35.32;98839.84;5071821;28;20367;-76
2023/10/15 11:14:12;;;;;;;;;;;;;;;25.89;34.44;98840.34;5071678;28;19917;-75
2023/10/15 11:16:38;;;;;;;;;;;;;;;25.88;35.32;98838.75;5074178;28;19939;-76
2023/10/15 11:19:12;;;;;;;;;;;;;;;25.87;35.95;98834.44;5070821;28;19905;-75
2023/10/15 11:21:40;;;;;;;;;;;;;;;25.85;35.25;98828.50;5071570;28;20382;-77
2023/10/15 11:24:09;;;;;;;;;;;;;;;25.80;35.67;98834.00;5071857;28;19916;-77
2023/10/15 11:26:35;;;;;;;;;;;;;;;25.72;34.28;98831.16;5073242;28;20376;-77
2023/10/15 11:29:00;;;;;;;;;;;;;;;25.63;35.55;98823.69;5075206;28;19944;-76
2023/10/15 11:31:27;;;;;;;;;;;;;;;25.56;35.99;98820.56;5074775;28;20301;-77
2023/10/15 11:33:53;;;;;;;;;;;;;;;25.48;35.99;98829.34;5074857;28;19927;-77
2023/10/15 11:36:19;;;;;;;;;;;;;;;25.39;35.72;98819.47;5075167;28;19913;-77
2023/10/15 11:38:44;;;;;;;;;;;;;;;25.30;34.90;98817.44;5079099;28;20011;-78
2023/10/15 11:41:12;;;;;;;;;;;;;;;25.23;36.17;98814.25;5079594;28;19912;-77
2023/10/15 11:43:39;;;;;;;;;;;;;;;25.16;36.48;98813.81;5079370;28;19967;-77
2023/10/15 11:46:08;;;;;;;;;;;;;;;25.07;36.35;98815.56;5075808;28;20339;-77
2023/10/15 11:48:34;;;;;;;;;;;;;;;24.99;35.43;98803.50;5074286;28;19995;-78
2023/10/15 11:51:00;;;;;;;;;;;;;;;24.92;35.29;98807.63;5073346;28;19912;-77
2023/10/15 11:53:25;;;;;;;;;;;;;;;24.88;36.05;98804.72;5074358;28;19918;-78
2023/10/15 11:55:53;;;;;;;;;;;;;;;24.84;36.60;98797.47;5074204;28;19916;-78
2023/10/15 11:58:23;;;;;;;;;;;;;;;24.81;36.78;98796.16;5074169;28;19912;-77
2023/10/15 12:00:51;;;;;;;;;;;;;;;24.78;37.12;98795.94;5073024;28;19994;-77
2023/10/15 12:03:16;;;;;;;;;;;;;;;24.72;37.34;98792.50;5074061;28;20441;-78
2023/10/15 12:05:42;;;;;;;;;;;;;;;24.65;37.18;98783.94;5072674;28;20004;-77
2023/10/15 12:08:08;;;;;;;;;;;;;;;24.58;37.11;98787.00;5074120;28;19920;-77
2023/10/15 12:10:34;;;;;;;;;;;;;;;24.58;36.31;98792.38;5074109;28;20287;-78
2023/10/15 12:12:59;;;;;;;;;;;;;;;24.58;36.96;98792.38;5073998;28;19912;-77
2023/10/15 12:15:25;;;;;;;;;;;;;;;24.59;36.71;98793.19;5074020;28;19917;-75
2023/10/15 12:17:50;;;;;;;;;;;;;;;24.59;36.84;98788.59;5074079;28;19920;-75
2023/10/15 12:20:17;;;;;;;;;;;;;;;24.58;37.42;98792.38;5074394;28;19913;-77
2023/10/15 12:22:43;;;;;;;;;;;;;;;24.56;37.93;98794.56;5074201;28;19916;-77
2023/10/15 12:25:08;;;;;;;;;;;;;;;24.52;38.18;98788.09;5074134;28;19912;-77
2023/10/15 12:27:33;;;;;;;;;;;;;;;24.52;38.40;98787.31;5074089;28;20355;-77
2023/10/15 12:30:04;;;;;;;;;;;;;;;24.50;38.73;98793.00;5073859;28;19912;-76
2023/10/15 12:32:29;;;;;;;;;;;;;;;24.48;37.97;98787.06;5073799;28;19912;-76
2023/10/15 12:34:54;;;;;;;;;;;;;;;24.49;38.92;98788.69;5073698;28;20450;-78
2023/10/15 12:37:24;;;;;;;;;;;;;;;24.50;37.47;98782.19;5073695;28;19995;-76
2023/10/15 12:39:51;;;;;;;;;;;;;;;24.53;36.91;98789.75;5073731;28;19936;-77
2023/10/15 12:42:18;;;;;;;;;;;;;;;24.55;37.38;98782.16;5071974;28;20061;-76
2023/10/15 12:44:44;;;;;;;;;;;;;;;24.57;38.11;98779.19;5072946;28;19913;-76
2023/10/15 12:47:09;;;;;;;;;;;;;;;24.56;38.04;98778.38;5073897;28;19961;-76
2023/10/15 12:49:35;;;;;;;;;;;;;;;24.59;37.84;98772.41;5073632;28;20377;-76
2023/10/15 12:52:02;;;;;;;;;;;;;;;24.59;37.63;98768.91;5073678;28;20017;-77
2023/10/15 12:54:28;;;;;;;;;;;;;;;24.58;37.63;98773.50;5073419;28;19981;-77
2023/10/15 12:56:55;;;;;;;;;;;;;;;24.56;37.98;98767.56;5073376;28;19995;-77
2023/10/15 12:59:21;;;;;;;;;;;;;;;24.53;37.68;98762.75;5072002;28;19979;-76
2023/10/15 13:01:46;;;;;;;;;;;;;;;24.53;37.78;98760.06;5071813;28;19920;-76
2023/10/15 13:04:12;;;;;;;;;;;;;;;24.53;38.13;98768.16;5073039;28;19931;-77
2023/10/15 13:06:37;;;;;;;;;;;;;;;24.54;38.44;98760.88;5071596;28;19978;-76
2023/10/15 13:09:08;;;;;;;;;;;;;;;24.55;38.14;98760.56;5072978;28;19912;-76